Time;durP1;ratioP1;P1;durP2;ratioP2;P2;SDS_P1;SDS_P2;PMS_P1;PMS_P2;Temp;Humidity;BMP_temperature;BMP_pressure;BME280_temperature;BME280_humidity;BME280_pressure;Samples;Min_cycle;Max_cycle;Signal;HPM_P1;HPM_P2
2023/02/11 00:01:44;;;;;;;29.70;14.90;;;;;;;2.85;76.83;101507.02;135174;1254;107237;-75
2023/02/11 00:04:50;;;;;;;35.40;15.50;;;;;;;2.81;76.85;101494.70;135170;1254;107656;-74
2023/02/11 00:07:55;;;;;;;30.80;16.00;;;;;;;2.79;77.07;101493.77;135167;1254;107507;-75
2023/02/11 00:11:01;;;;;;;52.00;21.90;;;;;;;2.81;76.87;101497.02;135206;1254;105905;-74
2023/02/11 00:14:08;;;;;;;38.10;18.80;;;;;;;2.88;76.91;101493.52;135227;1254;107564;-74
2023/02/11 00:17:14;;;;;;;49.60;22.90;;;;;;;2.93;76.91;101488.15;135267;1254;107284;-75
2023/02/11 00:20:20;;;;;;;37.60;17.10;;;;;;;2.99;76.79;101484.73;135236;1254;107284;-74
2023/02/11 00:23:25;;;;;;;39.20;16.90;;;;;;;3.01;76.62;101463.02;135236;1254;107545;-74
2023/02/11 00:26:33;;;;;;;33.70;16.40;;;;;;;2.99;76.57;101465.71;135253;1254;107433;-74
2023/02/11 00:29:39;;;;;;;32.30;16.30;;;;;;;2.96;76.58;101459.00;135222;1254;107396;-74
2023/02/11 00:32:45;;;;;;;32.70;15.60;;;;;;;2.92;76.64;101448.64;135243;1254;107555;-74
2023/02/11 00:35:51;;;;;;;30.00;15.10;;;;;;;2.89;76.78;101439.85;135167;1253;107509;-74
2023/02/11 00:38:57;;;;;;;42.80;19.90;;;;;;;2.84;76.91;101424.63;135257;1253;107453;-74
2023/02/11 00:42:03;;;;;;;51.20;23.90;;;;;;;2.76;76.89;101419.38;135254;1254;107663;-74
2023/02/11 00:45:10;;;;;;;40.20;18.70;;;;;;;2.71;76.77;101424.17;135195;1254;107394;-74
2023/02/11 00:48:15;;;;;;;197.30;60.50;;;;;;;2.67;76.97;101438.98;135209;1255;107544;-74
2023/02/11 00:51:21;;;;;;;39.20;18.80;;;;;;;2.65;76.81;101442.77;135237;1254;107340;-75
2023/02/11 00:54:26;;;;;;;60.20;25.30;;;;;;;2.65;76.89;101437.46;135258;1254;107229;-75
2023/02/11 00:57:32;;;;;;;66.80;26.30;;;;;;;2.70;77.09;101433.02;135243;1254;107541;-74
2023/02/11 01:00:37;;;;;;;50.00;22.20;;;;;;;2.73;76.99;101424.96;135230;1254;108660;-74
2023/02/11 01:03:43;;;;;;;65.70;27.30;;;;;;;2.75;76.77;101410.27;135232;1254;107547;-74
2023/02/11 01:06:49;;;;;;;59.40;24.10;;;;;;;2.74;76.55;101399.97;135239;1253;107543;-75
2023/02/11 01:09:54;;;;;;;86.60;32.40;;;;;;;2.73;76.79;101392.80;135198;1254;107620;-75
2023/02/11 01:13:00;;;;;;;75.60;30.00;;;;;;;2.71;76.91;101386.58;135329;1254;109273;-74
2023/02/11 01:16:08;;;;;;;38.10;19.00;;;;;;;2.70;76.79;101375.39;134974;1254;106637;-74
2023/02/11 01:19:14;;;;;;;55.30;23.60;;;;;;;2.66;76.77;101356.61;135241;1254;107566;-74
2023/02/11 01:22:20;;;;;;;36.30;17.50;;;;;;;2.63;76.77;101338.53;135034;1254;108673;-75
2023/02/11 01:25:25;;;;;;;54.90;24.00;;;;;;;2.60;76.81;101340.94;134961;1254;107418;-74
2023/02/11 01:28:31;;;;;;;36.30;16.00;;;;;;;2.62;76.77;101341.03;135304;1254;108218;-74
2023/02/11 01:31:38;;;;;;;31.80;16.40;;;;;;;2.66;76.89;101324.67;134974;1254;107539;-74
2023/02/11 01:34:44;;;;;;;65.20;28.60;;;;;;;2.69;76.77;101316.23;135259;1254;107538;-74
2023/02/11 01:37:51;;;;;;;45.70;20.40;;;;;;;2.70;76.74;101315.29;135018;1254;107476;-74
2023/02/11 01:40:59;;;;;;;52.00;22.50;;;;;;;2.72;76.69;101315.60;135000;1253;107565;-74
2023/02/11 01:44:29;;;;;;;36.10;19.00;;;;;;;2.70;76.77;101308.29;135304;1254;107450;-74
2023/02/11 01:47:34;;;;;;;48.50;20.80;;;;;;;2.66;76.60;101309.03;135239;1254;107911;-75
2023/02/11 01:50:42;;;;;;;45.20;20.60;;;;;;;2.61;76.64;101302.95;135236;1254;107547;-75
2023/02/11 01:57:22;;;;;;;76.40;29.40;;;;;;;2.55;76.63;101291.63;135253;1254;107436;-75
2023/02/11 02:00:34;;;;;;;96.70;38.40;;;;;;;2.53;76.47;101289.81;134965;1254;106507;-74
2023/02/11 02:03:45;;;;;;;51.90;23.00;;;;;;;2.50;76.53;101291.71;134958;1254;107638;-74
2023/02/11 02:06:56;;;;;;;49.80;19.70;;;;;;;2.49;76.50;101296.33;135071;1254;106068;-76
2023/02/11 02:10:05;;;;;;;55.30;22.80;;;;;;;2.50;76.53;101268.20;135295;1254;108681;-74
2023/02/11 02:13:12;;;;;;;46.50;19.80;;;;;;;2.53;76.48;101274.34;135059;1254;108217;-76
2023/02/11 02:16:20;;;;;;;51.90;21.40;;;;;;;2.59;76.27;101264.93;135161;1254;108561;-74
2023/02/11 02:19:57;;;;;;;49.40;20.60;;;;;;;2.61;76.08;101259.73;135037;1254;107556;-75
2023/02/11 02:23:23;;;;;;;32.50;17.10;;;;;;;2.61;76.01;101257.13;135245;1254;105445;-75
2023/02/11 02:26:44;;;;;;;37.30;17.60;;;;;;;2.59;76.00;101240.02;135273;1254;107728;-75
2023/02/11 02:30:11;;;;;;;43.00;20.70;;;;;;;2.55;75.91;101237.71;135273;1253;107537;-75
2023/02/11 02:33:43;;;;;;;49.30;22.90;;;;;;;2.52;75.99;101243.68;135262;1254;107401;-74
2023/02/11 02:36:53;;;;;;;;;;;;;;;2.44;75.64;101228.09;135154;1254;107421;-74
2023/02/11 02:39:59;;;;;;;41.80;19.50;;;;;;;2.40;75.94;101219.88;135304;1254;108798;-75
2023/02/11 02:43:07;;;;;;;33.70;17.80;;;;;;;2.37;75.88;101208.42;135260;1253;106660;-74
2023/02/11 02:46:15;;;;;;;44.40;21.40;;;;;;;2.33;75.88;101199.29;135206;1254;107516;-75
2023/02/11 02:49:21;;;;;;;44.00;20.60;;;;;;;2.31;75.79;101208.02;135303;1254;107513;-74
2023/02/11 02:52:35;;;;;;;31.70;15.40;;;;;;;2.30;75.91;101192.59;135263;1254;107508;-74
2023/02/11 02:55:54;;;;;;;45.80;22.00;;;;;;;2.32;75.91;101166.32;135333;1254;107469;-74
2023/02/11 02:59:20;;;;;;;46.80;22.60;;;;;;;2.34;75.89;101148.66;135280;1253;108680;-75
2023/02/11 03:02:30;;;;;;;40.70;19.70;;;;;;;2.36;75.69;101140.48;135248;1254;107439;-74
2023/02/11 03:05:45;;;;;;;64.20;28.30;;;;;;;2.36;75.68;101156.29;135260;1253;107395;-75
2023/02/11 03:08:57;;;;;;;67.80;29.50;;;;;;;2.36;75.67;101168.06;135239;1254;107561;-74
2023/02/11 03:12:04;;;;;;;54.20;25.10;;;;;;;2.35;75.41;101172.33;135285;1254;107583;-74
2023/02/11 03:15:11;;;;;;;40.70;21.20;;;;;;;2.34;75.49;101166.75;135297;1254;107404;-75
2023/02/11 03:18:21;;;;;;;48.10;22.90;;;;;;;2.34;75.57;101169.42;135265;1254;107521;-74
2023/02/11 03:21:27;;;;;;;72.00;33.80;;;;;;;2.33;75.68;101154.35;135243;1254;107206;-74
2023/02/11 03:24:37;;;;;;;47.40;23.80;;;;;;;2.32;75.53;101148.79;135291;1254;107946;-75
2023/02/11 03:27:46;;;;;;;45.70;22.30;;;;;;;2.30;75.44;101142.55;135237;1254;107467;-74
2023/02/11 03:30:57;;;;;;;50.20;24.90;;;;;;;2.31;75.62;101147.09;135255;1254;107523;-74
2023/02/11 03:34:09;;;;;;;31.20;16.30;;;;;;;2.32;75.67;101140.14;135307;1254;107482;-75
2023/02/11 03:37:20;;;;;;;117.70;44.50;;;;;;;2.40;75.60;101131.87;135113;1254;177149;-74
2023/02/11 03:40:30;;;;;;;70.50;29.00;;;;;;;2.48;75.25;101133.77;135279;1253;106876;-74
2023/02/11 03:43:41;;;;;;;40.20;21.10;;;;;;;2.52;75.33;101125.65;135283;1254;107531;-74
2023/02/11 03:46:52;;;;;;;128.50;57.50;;;;;;;2.55;75.19;101124.08;135260;1256;107512;-75
2023/02/11 03:49:59;;;;;;;83.70;36.70;;;;;;;2.55;75.16;101119.15;135299;1254;107279;-75
2023/02/11 03:53:06;;;;;;;87.00;39.60;;;;;;;2.54;75.09;101112.87;135294;1253;107381;-75
2023/02/11 03:56:15;;;;;;;104.30;45.30;;;;;;;2.54;75.22;101102.00;135290;1253;107570;-75
2023/02/11 03:59:21;;;;;;;194.20;70.00;;;;;;;2.50;75.07;101084.81;135302;1253;105827;-75
2023/02/11 04:02:30;;;;;;;163.60;57.20;;;;;;;2.42;74.98;101070.87;135306;1254;108730;-75
2023/02/11 04:05:36;;;;;;;303.20;89.60;;;;;;;2.34;75.02;101076.90;135224;1253;107561;-76
2023/02/11 04:08:42;;;;;;;543.80;170.10;;;;;;;2.27;75.08;101081.82;135257;1253;107575;-75
2023/02/11 04:11:47;;;;;;;586.10;168.20;;;;;;;2.23;75.19;101086.75;135293;1253;107505;-75
2023/02/11 04:14:53;;;;;;;216.20;58.20;;;;;;;2.19;75.08;101078.55;135254;1254;106534;-75
2023/02/11 04:17:58;;;;;;;534.40;127.10;;;;;;;2.15;75.25;101069.62;135271;1253;107508;-75
2023/02/11 04:21:04;;;;;;;249.10;62.60;;;;;;;2.13;75.22;101064.28;135229;1254;107997;-75
2023/02/11 04:24:09;;;;;;;326.90;77.50;;;;;;;2.13;75.21;101061.98;135265;1255;108183;-76
2023/02/11 04:27:15;;;;;;;709.10;189.20;;;;;;;2.16;75.08;101058.52;135273;1256;107318;-75
2023/02/11 04:30:21;;;;;;;1724.50;510.20;;;;;;;2.17;74.91;101056.00;135286;1254;106007;-75
2023/02/11 04:33:27;;;;;;;889.70;272.40;;;;;;;2.18;75.11;101053.29;135315;1254;107286;-75
2023/02/11 04:36:32;;;;;;;517.60;153.70;;;;;;;2.21;74.90;101040.17;135305;1254;106448;-75
2023/02/11 04:39:38;;;;;;;359.30;107.60;;;;;;;2.20;74.91;101035.14;135278;1254;107511;-76
2023/02/11 04:42:44;;;;;;;327.50;106.00;;;;;;;2.15;75.00;101030.81;135336;1254;107192;-75
2023/02/11 04:45:49;;;;;;;366.20;142.50;;;;;;;2.09;75.00;101029.18;135303;1254;107519;-75
2023/02/11 04:48:56;;;;;;;100.80;44.40;;;;;;;2.05;74.89;101027.33;135253;1255;107359;-75
2023/02/11 04:52:01;;;;;;;57.70;29.90;;;;;;;2.01;74.97;101014.54;135325;1254;105802;-75
2023/02/11 04:55:08;;;;;;;56.10;30.00;;;;;;;2.01;74.96;101007.55;135316;1254;108762;-75
2023/02/11 04:58:13;;;;;;;37.40;20.60;;;;;;;2.02;75.07;101009.56;135272;1253;107542;-74
2023/02/11 05:01:19;;;;;;;35.00;19.10;;;;;;;2.02;75.09;101002.05;135246;1254;107539;-75
2023/02/11 05:04:26;;;;;;;33.50;17.90;;;;;;;2.01;75.00;100998.21;135278;1254;105623;-75
2023/02/11 05:07:32;;;;;;;32.10;17.50;;;;;;;2.06;74.79;100994.09;135300;1254;107919;-75
2023/02/11 05:10:38;;;;;;;31.70;17.80;;;;;;;2.12;75.18;100989.92;135221;1253;107367;-76
2023/02/11 05:13:43;;;;;;;267.30;91.60;;;;;;;2.19;74.79;100984.08;135251;1254;107592;-75
2023/02/11 05:16:49;;;;;;;683.10;264.30;;;;;;;2.24;74.66;100980.16;135264;1254;108238;-76
2023/02/11 05:19:54;;;;;;;445.20;144.40;;;;;;;2.25;74.69;100972.03;135298;1254;108152;-75
2023/02/11 05:23:00;;;;;;;503.70;148.50;;;;;;;2.24;74.59;100968.02;135316;1254;105820;-75
2023/02/11 05:26:06;;;;;;;900.10;284.50;;;;;;;2.22;74.52;100961.80;135213;1254;108697;-75
2023/02/11 05:29:11;;;;;;;654.00;199.40;;;;;;;2.24;74.54;100953.30;135298;1254;105980;-76
2023/02/11 05:32:17;;;;;;;1034.30;355.60;;;;;;;2.24;74.44;100946.80;135282;1254;107396;-75
2023/02/11 05:35:22;;;;;;;826.40;261.30;;;;;;;2.19;74.23;100952.52;135266;1255;107554;-75
2023/02/11 05:38:28;;;;;;;259.30;74.20;;;;;;;2.12;74.58;100948.31;135287;1254;108671;-75
2023/02/11 05:41:34;;;;;;;674.80;201.70;;;;;;;2.09;74.38;100937.07;135253;1254;107535;-76
2023/02/11 05:44:39;;;;;;;608.90;168.50;;;;;;;2.09;74.57;100938.30;135246;1254;105563;-75
2023/02/11 05:47:45;;;;;;;813.70;338.50;;;;;;;2.08;74.52;100942.04;135288;1254;107521;-76
2023/02/11 05:50:50;;;;;;;513.60;193.60;;;;;;;2.08;74.75;100941.15;135257;1257;108118;-76
2023/02/11 05:53:57;;;;;;;159.10;61.80;;;;;;;2.09;74.69;100940.39;135229;1254;107521;-76
2023/02/11 05:57:02;;;;;;;381.90;137.50;;;;;;;2.14;74.69;100937.11;135317;1254;107507;-75
2023/02/11 06:00:11;;;;;;;180.10;69.90;;;;;;;2.21;74.39;100933.61;135344;1254;107376;-75
2023/02/11 06:03:19;;;;;;;265.50;108.10;;;;;;;2.28;74.30;100928.49;135234;1254;107506;-76
2023/02/11 06:06:25;;;;;;;110.60;47.60;;;;;;;2.34;74.44;100925.33;135251;1254;107365;-75
2023/02/11 06:09:30;;;;;;;103.10;50.50;;;;;;;2.38;74.14;100918.29;135262;1256;107418;-75
2023/02/11 06:12:37;;;;;;;72.20;38.10;;;;;;;2.40;74.38;100913.46;135225;1253;107559;-75
2023/02/11 06:15:43;;;;;;;66.50;33.20;;;;;;;2.42;74.49;100907.38;135287;1254;107511;-75
2023/02/11 06:18:49;;;;;;;46.80;25.50;;;;;;;2.43;74.18;100907.19;135227;1254;107221;-75
2023/02/11 06:21:55;;;;;;;43.90;23.70;;;;;;;2.43;74.52;100906.09;135238;1257;107621;-75
2023/02/11 06:25:01;;;;;;;45.10;27.00;;;;;;;2.44;74.34;100911.27;135298;1254;107280;-75
2023/02/11 06:28:07;;;;;;;40.30;22.80;;;;;;;2.46;74.59;100906.77;135283;1254;108247;-76
2023/02/11 06:31:13;;;;;;;38.30;22.50;;;;;;;2.47;74.37;100895.66;135235;1254;109322;-76
2023/02/11 06:34:18;;;;;;;38.60;22.00;;;;;;;2.49;74.24;100887.31;135217;1255;107513;-76
2023/02/11 06:37:24;;;;;;;37.20;21.70;;;;;;;2.50;74.28;100885.52;135247;1254;109779;-75
2023/02/11 06:40:30;;;;;;;41.60;23.30;;;;;;;2.50;74.52;100882.35;135249;1254;107592;-76
2023/02/11 06:43:35;;;;;;;40.80;21.80;;;;;;;2.52;74.41;100876.42;135239;1254;107399;-76
2023/02/11 06:46:41;;;;;;;35.50;19.40;;;;;;;2.57;74.37;100875.42;135233;1254;107525;-76
2023/02/11 06:49:47;;;;;;;37.10;20.50;;;;;;;2.65;74.39;100876.58;135223;1254;106637;-75
2023/02/11 06:52:52;;;;;;;36.60;21.40;;;;;;;2.74;74.25;100878.35;135203;1253;106572;-76
2023/02/11 06:56:01;;;;;;;39.60;22.20;;;;;;;2.80;74.12;100880.86;135255;1254;107548;-76
2023/02/11 06:59:07;;;;;;;38.40;22.20;;;;;;;2.84;74.35;100874.30;135146;1254;107540;-76
2023/02/11 07:02:12;;;;;;;38.70;22.30;;;;;;;2.86;74.07;100861.89;135279;1254;107511;-76
2023/02/11 07:05:18;;;;;;;42.10;23.30;;;;;;;2.90;74.17;100865.67;135250;1254;108702;-75
2023/02/11 07:08:24;;;;;;;174.10;68.50;;;;;;;2.94;74.10;100860.88;135278;1253;107469;-75
2023/02/11 07:11:30;;;;;;;227.40;83.20;;;;;;;2.95;74.31;100855.19;135287;1254;106175;-75
2023/02/11 07:14:36;;;;;;;341.30;123.70;;;;;;;2.96;74.18;100862.69;135193;1254;107778;-77
2023/02/11 07:17:42;;;;;;;323.00;113.80;;;;;;;2.95;74.13;100866.92;135224;1254;107520;-76
2023/02/11 07:20:47;;;;;;;278.20;92.70;;;;;;;2.98;74.24;100858.20;135315;1254;108725;-75
2023/02/11 07:23:53;;;;;;;337.60;103.60;;;;;;;2.99;74.13;100851.77;135244;1254;107564;-75
2023/02/11 07:26:59;;;;;;;259.00;77.50;;;;;;;2.98;74.16;100859.77;135170;1254;105950;-76
2023/02/11 07:30:05;;;;;;;410.70;126.10;;;;;;;2.98;74.23;100855.20;135046;1254;107552;-75
2023/02/11 07:33:10;;;;;;;296.50;89.90;;;;;;;3.04;74.23;100860.65;135174;1255;107492;-75
2023/02/11 07:36:17;;;;;;;360.50;105.40;;;;;;;3.11;74.34;100860.38;135223;1254;107589;-75
2023/02/11 07:39:26;;;;;;;334.50;95.60;;;;;;;3.19;74.14;100864.55;135213;1254;107507;-79
2023/02/11 07:42:31;;;;;;;283.10;91.50;;;;;;;3.23;74.29;100853.87;135270;1254;108681;-79
2023/02/11 07:45:39;;;;;;;240.30;83.60;;;;;;;3.25;74.31;100847.80;135300;1254;107545;-79
2023/02/11 07:48:45;;;;;;;182.00;70.90;;;;;;;3.27;74.43;100843.98;135255;1254;107627;-79
2023/02/11 07:51:51;;;;;;;258.30;116.20;;;;;;;3.27;74.59;100841.38;135241;1254;106698;-81
2023/02/11 07:54:56;;;;;;;85.90;43.30;;;;;;;3.22;74.75;100849.55;135217;1254;107365;-81
2023/02/11 07:58:02;;;;;;;161.70;64.30;;;;;;;3.21;74.88;100853.70;135196;1254;108687;-77
2023/02/11 08:01:10;;;;;;;106.20;45.30;;;;;;;3.20;75.22;100850.36;135198;1254;107548;-77
2023/02/11 08:04:15;;;;;;;103.60;44.60;;;;;;;3.23;75.29;100837.02;135172;1254;107274;-77
2023/02/11 08:07:21;;;;;;;109.70;52.50;;;;;;;3.23;75.58;100841.07;135239;1254;108721;-77
2023/02/11 08:10:27;;;;;;;67.40;34.20;;;;;;;3.28;75.77;100828.66;135238;1254;107346;-77
2023/02/11 08:13:33;;;;;;;53.00;27.20;;;;;;;3.39;75.65;100831.15;135198;1254;107563;-77
2023/02/11 08:16:39;;;;;;;96.00;46.60;;;;;;;3.50;75.71;100821.98;135230;1254;108686;-77
2023/02/11 08:19:45;;;;;;;62.50;33.60;;;;;;;3.55;75.85;100823.83;135254;1254;108094;-77
2023/02/11 08:22:51;;;;;;;75.70;39.40;;;;;;;3.55;76.05;100821.91;135226;1254;106399;-77
2023/02/11 08:26:00;;;;;;;49.80;29.40;;;;;;;3.53;76.27;100823.41;135171;1254;107907;-76
2023/02/11 08:29:09;;;;;;;68.30;35.00;;;;;;;3.49;76.39;100826.46;135259;1254;107569;-78
2023/02/11 08:32:15;;;;;;;59.30;32.00;;;;;;;3.49;76.63;100819.45;135212;1254;107420;-81
2023/02/11 08:35:20;;;;;;;60.30;32.00;;;;;;;3.49;76.52;100823.16;135166;1254;107657;-82
2023/02/11 08:38:26;;;;;;;60.80;31.40;;;;;;;3.47;76.94;100822.91;135169;1254;107533;-82
2023/02/11 08:41:32;;;;;;;50.30;27.60;;;;;;;3.47;77.03;100823.63;135189;1254;107505;-73
2023/02/11 08:44:37;;;;;;;155.90;74.80;;;;;;;3.50;76.97;100819.41;135136;1254;108597;-75
2023/02/11 08:47:43;;;;;;;367.10;119.20;;;;;;;3.56;76.93;100814.27;135179;1254;107528;-78
2023/02/11 08:50:48;;;;;;;431.00;151.30;;;;;;;3.61;76.89;100816.59;135164;1254;107514;-77
2023/02/11 08:53:55;;;;;;;459.40;151.70;;;;;;;3.66;76.78;100807.86;135164;1254;105733;-77
2023/02/11 08:57:01;;;;;;;203.20;66.60;;;;;;;3.71;77.08;100799.77;135187;1254;107537;-77
2023/02/11 09:00:09;;;;;;;228.40;75.30;;;;;;;3.80;76.99;100798.04;135194;1254;107498;-77
2023/02/11 09:03:16;;;;;;;358.90;114.00;;;;;;;3.81;76.97;100791.27;135208;1254;107446;-76
2023/02/11 09:06:22;;;;;;;509.60;182.90;;;;;;;3.84;76.96;100783.33;135185;1254;106969;-77
2023/02/11 09:09:28;;;;;;;132.10;56.00;;;;;;;3.87;77.15;100767.11;135098;1254;107401;-76
2023/02/11 09:12:33;;;;;;;101.80;50.70;;;;;;;3.96;76.99;100765.70;135136;1254;107549;-76
2023/02/11 09:15:39;;;;;;;107.60;54.80;;;;;;;4.02;76.91;100758.81;135126;1254;107252;-77
2023/02/11 09:18:44;;;;;;;64.40;36.10;;;;;;;4.05;76.82;100755.56;135132;1254;107152;-77
2023/02/11 09:21:50;;;;;;;39.90;23.90;;;;;;;4.10;76.87;100732.55;135170;1254;107516;-79
2023/02/11 09:24:56;;;;;;;38.00;23.00;;;;;;;4.13;76.86;100713.20;135171;1254;107667;-78
2023/02/11 09:28:02;;;;;;;36.60;22.50;;;;;;;4.13;76.94;100703.66;135199;1254;107542;-77
2023/02/11 09:31:09;;;;;;;35.10;21.60;;;;;;;4.11;76.82;100700.63;135188;1254;108684;-78
2023/02/11 09:34:14;;;;;;;35.30;22.10;;;;;;;4.08;76.86;100700.32;135212;1254;107723;-78
2023/02/11 09:37:20;;;;;;;36.30;22.70;;;;;;;3.98;77.01;100698.15;135088;1254;108378;-77
2023/02/11 09:40:26;;;;;;;36.40;20.80;;;;;;;3.87;77.14;100708.17;134997;1254;105696;-78
2023/02/11 09:43:36;;;;;;;35.40;20.90;;;;;;;3.81;77.33;100708.00;134945;1254;107512;-78
2023/02/11 09:46:47;;;;;;;35.40;21.10;;;;;;;3.76;77.42;100713.83;134985;1254;107283;-77
2023/02/11 09:49:57;;;;;;;38.40;22.60;;;;;;;3.73;77.47;100722.24;134983;1254;107511;-77
2023/02/11 09:53:06;;;;;;;33.20;21.50;;;;;;;3.69;77.64;100726.70;135098;1254;105755;-77
2023/02/11 09:56:15;;;;;;;34.20;21.60;;;;;;;3.67;77.68;100735.29;135225;1254;107500;-78
2023/02/11 09:59:20;;;;;;;325.50;135.00;;;;;;;3.64;77.93;100737.09;135165;1253;108661;-78
2023/02/11 10:02:36;;;;;;;211.30;78.40;;;;;;;3.61;77.92;100737.48;135149;1253;107516;-77
2023/02/11 10:05:57;;;;;;;299.40;113.50;;;;;;;3.60;77.95;100741.20;135180;1254;107496;-78
2023/02/11 10:09:18;;;;;;;55.20;29.90;;;;;;;3.60;78.27;100719.75;135138;1254;108665;-77
2023/02/11 10:12:39;;;;;;;116.40;56.60;;;;;;;3.63;78.43;100712.34;135176;1253;107501;-78
2023/02/11 10:15:51;;;;;;;92.90;48.80;;;;;;;3.71;78.61;100713.21;135163;1254;107563;-77
2023/02/11 10:19:12;;;;;;;39.80;23.70;;;;;;;3.81;78.59;100710.30;135151;1253;107677;-78
2023/02/11 10:22:23;;;;;;;54.60;32.80;;;;;;;3.88;78.79;100704.38;135153;1254;107295;-77
2023/02/11 10:25:36;;;;;;;41.20;26.80;;;;;;;3.91;78.61;100703.31;135169;1254;107298;-77
2023/02/11 10:28:42;;;;;;;;;;;;;;;3.94;78.87;100683.77;135176;1254;107512;-78
2023/02/11 10:31:49;;;;;;;40.20;23.40;;;;;;;3.90;78.84;100712.85;135162;1253;107526;-79
2023/02/11 10:35:00;;;;;;;39.70;23.60;;;;;;;3.84;79.11;100730.69;135239;1254;107263;-78
2023/02/11 10:38:06;;;;;;;42.10;22.90;;;;;;;3.75;79.09;100723.36;135152;1254;107246;-77
2023/02/11 10:41:17;;;;;;;38.30;22.80;;;;;;;3.72;79.06;100712.82;135124;1254;107484;-78
2023/02/11 10:44:29;;;;;;;35.10;20.60;;;;;;;3.72;79.35;100700.69;135167;1253;107646;-77
2023/02/11 10:47:38;;;;;;;39.70;23.40;;;;;;;3.73;79.87;100699.57;135218;1254;107582;-77
2023/02/11 10:50:43;;;;;;;36.50;23.10;;;;;;;3.72;79.65;100674.81;135128;1254;105660;-78
2023/02/11 10:53:50;;;;;;;38.50;22.80;;;;;;;3.72;79.71;100657.02;135208;1254;107553;-78
2023/02/11 10:57:00;;;;;;;37.70;22.30;;;;;;;3.74;79.71;100666.80;135028;1254;107521;-78
2023/02/11 11:00:35;;;;;;;37.90;21.70;;;;;;;3.74;79.73;100657.44;135139;1254;107533;-78
2023/02/11 11:03:46;;;;;;;39.20;22.10;;;;;;;3.71;79.88;100661.32;135102;1254;107615;-78
2023/02/11 11:06:52;;;;;;;118.80;53.30;;;;;;;3.71;79.96;100646.73;135096;1253;107490;-77
2023/02/11 11:10:01;;;;;;;293.80;100.50;;;;;;;3.74;80.13;100651.10;135142;1253;107462;-78
2023/02/11 11:13:22;;;;;;;856.90;299.60;;;;;;;3.78;80.11;100639.56;135144;1253;107653;-78
2023/02/11 11:16:31;;;;;;;618.10;217.10;;;;;;;3.83;80.33;100639.23;135130;1253;107989;-78
2023/02/11 11:19:38;;;;;;;558.80;191.50;;;;;;;3.88;80.11;100626.96;135127;1253;108680;-78
2023/02/11 11:22:44;;;;;;;539.80;219.20;;;;;;;3.89;80.09;100621.27;135175;1253;105491;-77
2023/02/11 11:26:03;;;;;;;312.20;130.80;;;;;;;3.90;80.22;100598.64;135194;1254;108545;-78
2023/02/11 11:29:14;;;;;;;106.30;51.00;;;;;;;3.89;80.29;100593.63;135165;1254;107367;-77
2023/02/11 11:32:24;;;;;;;72.20;38.40;;;;;;;3.90;80.46;100628.36;135164;1253;107899;-78
2023/02/11 11:35:32;;;;;;;71.50;39.20;;;;;;;3.92;80.41;100634.63;135231;1253;107330;-78
2023/02/11 11:38:44;;;;;;;52.50;30.10;;;;;;;3.98;80.40;100642.52;135148;1254;107426;-77
2023/02/11 11:41:54;;;;;;;204.60;75.10;;;;;;;4.03;80.53;100653.29;135105;1254;107455;-78
2023/02/11 11:45:02;;;;;;;175.40;66.20;;;;;;;4.03;80.57;100677.38;135163;1253;107559;-78
2023/02/11 11:48:18;;;;;;;303.40;145.10;;;;;;;4.03;80.61;100682.66;135189;1254;107602;-77
2023/02/11 11:51:25;;;;;;;201.80;96.30;;;;;;;3.96;80.63;100683.27;135188;1254;107246;-77
2023/02/11 11:54:33;;;;;;;128.70;49.10;;;;;;;3.89;81.14;100680.58;135105;1253;107251;-77
2023/02/11 11:57:40;;;;;;;101.60;42.50;;;;;;;3.80;81.10;100690.64;135104;1254;107600;-77
2023/02/11 12:00:57;;;;;;;64.50;30.50;;;;;;;3.79;81.25;100680.71;135106;1253;107556;-77
2023/02/11 12:04:36;;;;;;;151.00;55.70;;;;;;;3.81;81.37;100677.41;135173;1254;107803;-78
2023/02/11 12:07:56;;;;;;;130.60;49.70;;;;;;;3.87;81.40;100675.39;135135;1254;107540;-77
2023/02/11 12:11:12;;;;;;;143.10;51.10;;;;;;;3.95;81.37;100668.59;135137;1254;106509;-78
2023/02/11 12:14:30;;;;;;;124.60;44.80;;;;;;;4.00;81.89;100656.50;135114;1254;107432;-79
2023/02/11 12:17:52;;;;;;;95.80;38.70;;;;;;;4.04;81.90;100647.73;135063;1254;107214;-78
2023/02/11 12:21:20;;;;;;;84.20;35.90;;;;;;;4.17;81.79;100646.50;135120;1253;107363;-78
2023/02/11 12:24:42;;;;;;;64.10;31.30;;;;;;;4.34;81.99;100647.51;135163;1253;106360;-78
2023/02/11 12:27:50;;;;;;;;;;;;;;;4.39;82.11;100636.58;135017;1254;107779;-78
2023/02/11 12:31:18;;;;;;;93.80;38.10;;;;;;;4.45;81.83;100642.55;135127;1253;107544;-78
2023/02/11 12:34:45;;;;;;;83.90;36.50;;;;;;;4.46;81.90;100636.66;135165;1254;107431;-78
2023/02/11 12:38:08;;;;;;;71.70;33.30;;;;;;;4.41;82.02;100633.66;135093;1253;107515;-78
2023/02/11 12:45:08;;;;;;;66.40;31.10;;;;;;;4.38;82.56;100631.05;135106;1253;107857;-78
2023/02/11 12:48:25;;;;;;;134.00;55.10;;;;;;;4.40;82.48;100628.65;135122;1253;107489;-78
2023/02/11 12:51:49;;;;;;;111.60;45.20;;;;;;;4.46;82.19;100624.31;135119;1253;108569;-78
2023/02/11 12:55:00;;;;;;;167.40;58.70;;;;;;;4.51;82.26;100618.54;135135;1253;107580;-78
2023/02/11 12:58:11;;;;;;;155.00;73.00;;;;;;;4.51;82.23;100616.96;135130;1253;108587;-78
2023/02/11 13:01:23;;;;;;;139.10;52.40;;;;;;;4.45;82.23;100612.73;135139;1254;107453;-78
2023/02/11 13:04:35;;;;;;;206.00;86.30;;;;;;;4.40;82.52;100605.23;135108;1254;108717;-78
2023/02/11 13:07:44;;;;;;;567.70;218.80;;;;;;;4.38;82.78;100612.22;135120;1254;107371;-78
2023/02/11 13:10:52;;;;;;;81.20;42.10;;;;;;;4.40;82.67;100615.05;135147;1254;107237;-78
2023/02/11 13:14:04;;;;;;;69.90;37.60;;;;;;;4.44;82.60;100615.81;135051;1254;108721;-78
2023/02/11 13:17:18;;;;;;;56.70;29.90;;;;;;;4.47;82.65;100604.36;135098;1254;107526;-77
2023/02/11 13:20:36;;;;;;;58.50;33.10;;;;;;;4.52;82.70;100615.13;135150;1254;107849;-78
2023/02/11 13:23:46;;;;;;;48.40;27.40;;;;;;;4.45;82.88;100621.77;135154;1253;108138;-77
2023/02/11 13:27:01;;;;;;;48.00;25.50;;;;;;;4.44;82.85;100630.13;135159;1254;107635;-77
2023/02/11 13:30:28;;;;;;;56.80;30.30;;;;;;;4.48;82.78;100630.85;135143;1253;107427;-78
2023/02/11 13:33:36;;;;;;;49.30;28.50;;;;;;;4.58;82.91;100630.25;135102;1254;107555;-78
2023/02/11 13:36:41;;;;;;;49.70;28.20;;;;;;;4.64;82.64;100625.55;135163;1253;106500;-78
2023/02/11 13:39:58;;;;;;;49.40;29.20;;;;;;;4.65;82.62;100628.47;135125;1254;107388;-77
2023/02/11 13:43:05;;;;;;;50.00;30.10;;;;;;;4.61;82.66;100633.35;135120;1253;107532;-78
2023/02/11 13:46:15;;;;;;;48.80;26.00;;;;;;;4.60;82.64;100630.27;135137;1254;107523;-78
2023/02/11 13:49:23;;;;;;;49.80;28.60;;;;;;;4.58;82.79;100634.98;135163;1253;107675;-78
2023/02/11 13:52:32;;;;;;;50.80;28.20;;;;;;;4.58;83.20;100629.69;135123;1253;107609;-78
2023/02/11 13:55:39;;;;;;;55.00;31.30;;;;;;;4.60;83.24;100640.45;135128;1253;107511;-78
2023/02/11 13:58:50;;;;;;;53.00;31.30;;;;;;;4.63;83.49;100641.48;135209;1254;108699;-77
2023/02/11 14:09:40;;;;;;;50.30;27.90;;;;;;;4.54;84.06;100649.02;135155;1254;108691;-78
2023/02/11 14:13:17;;;;;;;48.50;28.10;;;;;;;4.50;83.96;100643.42;135194;1253;107600;-78
2023/02/11 14:16:24;;;;;;;57.60;32.80;;;;;;;4.56;84.06;100639.67;135173;1254;107597;-78
2023/02/11 14:19:34;;;;;;;49.10;30.10;;;;;;;4.61;84.12;100636.89;135146;1254;105727;-78
2023/02/11 14:22:49;;;;;;;52.70;30.20;;;;;;;4.62;84.33;100635.91;135152;1255;107510;-78